Time;durP1;ratioP1;P1;durP2;ratioP2;P2;SDS_P1;SDS_P2;PMS_P1;PMS_P2;Temp;Humidity;BMP_temperature;BMP_pressure;BME280_temperature;BME280_humidity;BME280_pressure;Samples;Min_cycle;Max_cycle;Signal;HPM_P1;HPM_P2
2023/10/16 00:01:38;;;;;;;14.95;8.02;;;;;;;4.82;100.00;102417.97;6216261;23;20007;-81
2023/10/16 00:04:06;;;;;;;12.00;8.50;;;;;;;4.76;100.00;102406.09;6216038;23;20004;-81
2023/10/16 00:06:33;;;;;;;11.35;7.60;;;;;;;4.91;100.00;102425.50;6216495;23;20428;-79
2023/10/16 00:09:22;;;;;;;13.45;8.05;;;;;;;4.94;100.00;102430.59;6216297;23;20004;-80
2023/10/16 00:11:47;;;;;;;13.25;7.28;;;;;;;4.95;100.00;102426.31;6216025;23;20012;-76
2023/10/16 00:14:31;;;;;;;11.65;7.65;;;;;;;4.83;100.00;102402.59;6216403;23;20024;-75
2023/10/16 00:16:57;;;;;;;13.73;8.27;;;;;;;4.95;100.00;102404.13;6216142;23;20016;-77
2023/10/16 00:19:26;;;;;;;10.85;7.25;;;;;;;5.06;100.00;102427.84;6214475;23;20004;-79
2023/10/16 00:21:52;;;;;;;12.32;8.10;;;;;;;4.95;100.00;102396.44;6216081;23;20004;-76
2023/10/16 00:24:18;;;;;;;13.25;7.55;;;;;;;5.03;100.00;102417.66;6216269;23;20004;-75
2023/10/16 00:26:50;;;;;;;9.85;7.28;;;;;;;5.06;100.00;102425.28;6216150;23;20035;-76
2023/10/16 00:29:24;;;;;;;12.10;7.22;;;;;;;5.10;100.00;102413.28;6215979;23;20028;-75
2023/10/16 00:31:58;;;;;;;11.85;7.40;;;;;;;5.11;100.00;102414.97;6215984;23;20035;-75
2023/10/16 00:34:24;;;;;;;9.88;6.97;;;;;;;5.20;100.00;102430.19;6213638;23;20084;-77
2023/10/16 00:36:51;;;;;;;12.60;7.38;;;;;;;5.06;100.00;102401.41;6216126;23;20430;-77
2023/10/16 00:39:17;;;;;;;12.75;6.70;;;;;;;5.24;100.00;102418.22;6216045;23;20005;-76
2023/10/16 00:41:46;;;;;;;10.82;6.07;;;;;;;5.24;100.00;102420.78;6215931;23;20016;-77
2023/10/16 00:44:16;;;;;;;11.20;6.63;;;;;;;5.21;100.00;102410.56;6216101;23;20008;-77
2023/10/16 00:46:45;;;;;;;10.68;6.10;;;;;;;5.23;100.00;102411.41;6216184;23;20031;-76
2023/10/16 00:49:14;;;;;;;9.05;6.43;;;;;;;5.32;100.00;102426.63;6215978;23;20051;-76
2023/10/16 00:51:41;;;;;;;11.77;6.45;;;;;;;5.38;100.00;102429.91;6216106;23;20005;-78
2023/10/16 00:54:18;;;;;;;10.00;6.38;;;;;;;5.36;100.00;102430.81;6215845;23;20005;-81
2023/10/16 00:56:51;;;;;;;11.50;6.43;;;;;;;5.30;100.00;102418.09;6215886;23;20035;-79
2023/10/16 00:59:17;;;;;;;11.88;6.70;;;;;;;5.32;100.00;102419.78;6215925;23;20005;-76
2023/10/16 01:01:46;;;;;;;11.60;6.63;;;;;;;5.31;100.00;102418.09;6216172;23;20008;-78
2023/10/16 01:04:11;;;;;;;11.82;6.43;;;;;;;5.00;100.00;102370.75;6215932;23;20002;-78
2023/10/16 01:06:37;;;;;;;9.65;6.57;;;;;;;4.99;100.00;102375.03;6216417;23;20008;-77
2023/10/16 01:09:09;;;;;;;10.70;6.38;;;;;;;5.17;100.00;102420.84;6216895;23;20031;-79
2023/10/16 01:11:38;;;;;;;10.73;6.60;;;;;;;5.12;100.00;102416.69;6215811;23;20499;-79
2023/10/16 01:14:05;;;;;;;9.90;6.20;;;;;;;4.95;100.00;102414.34;6215560;23;20040;-82
2023/10/16 01:16:31;;;;;;;12.15;6.75;;;;;;;4.77;100.00;102401.81;6216111;23;20007;-77
2023/10/16 01:19:01;;;;;;;10.88;6.32;;;;;;;4.70;100.00;102389.97;6213653;23;20530;-79
2023/10/16 01:21:27;;;;;;;11.23;6.80;;;;;;;4.74;100.00;102407.81;6215702;23;20008;-78
2023/10/16 01:23:55;;;;;;;10.25;6.35;;;;;;;4.51;100.00;102374.84;6215855;23;20412;-81
2023/10/16 01:26:20;;;;;;;11.55;6.50;;;;;;;4.52;100.00;102384.25;6215788;23;20268;-77
2023/10/16 01:28:45;;;;;;;10.60;6.47;;;;;;;4.54;100.00;102382.50;6215303;23;20001;-78
2023/10/16 01:31:11;;;;;;;8.95;6.70;;;;;;;4.68;100.00;102400.22;6215987;23;20088;-79
2023/10/16 01:33:39;;;;;;;12.20;7.32;;;;;;;4.65;100.00;102400.28;6215534;23;20008;-82
2023/10/16 01:36:07;;;;;;;13.00;7.65;;;;;;;4.40;100.00;102357.94;6215535;23;20072;-81
2023/10/16 01:38:32;;;;;;;13.48;7.72;;;;;;;4.52;100.00;102378.25;6215414;23;20474;-81
2023/10/16 01:41:13;;;;;;;12.15;7.47;;;;;;;4.63;100.00;102388.38;6188987;23;20043;-79
2023/10/16 01:43:40;;;;;;;11.63;7.82;;;;;;;4.63;100.00;102396.06;6215781;23;20012;-82
2023/10/16 01:46:08;;;;;;;13.93;8.57;;;;;;;4.70;100.00;102395.06;6215495;23;20000;-81
2023/10/16 01:48:39;;;;;;;13.52;9.30;;;;;;;4.70;100.00;102384.84;6215440;23;20005;-76
2023/10/16 01:51:09;;;;;;;12.65;8.57;;;;;;;4.79;100.00;102394.94;6215123;23;20486;-81
2023/10/16 01:53:39;;;;;;;11.55;8.60;;;;;;;4.72;100.00;102378.84;6215278;23;20386;-80
2023/10/16 01:56:14;;;;;;;11.88;8.43;;;;;;;4.76;100.00;102393.28;6215271;23;20004;-79
2023/10/16 01:58:47;;;;;;;12.52;8.55;;;;;;;4.75;100.00;102394.16;6215510;23;20004;-80
2023/10/16 02:01:15;;;;;;;12.00;8.52;;;;;;;4.67;100.00;102388.28;6215536;23;20001;-81
2023/10/16 02:03:43;;;;;;;14.80;8.88;;;;;;;4.62;100.00;102390.06;6215215;23;20079;-79
2023/10/16 02:06:11;;;;;;;12.90;9.45;;;;;;;4.39;100.00;102352.00;6215234;23;20473;-76
2023/10/16 02:08:39;;;;;;;14.23;9.70;;;;;;;4.47;100.00;102365.53;6215146;23;20000;-78
2023/10/16 02:11:06;;;;;;;14.50;8.63;;;;;;;4.29;100.00;102328.25;6214975;23;20431;-80
2023/10/16 02:13:35;;;;;;;13.63;9.15;;;;;;;4.55;100.00;102378.22;6215115;23;20008;-79
2023/10/16 02:16:02;;;;;;;14.65;10.02;;;;;;;4.51;100.00;102358.66;6215269;23;20079;-74
2023/10/16 02:18:36;;;;;;;13.68;9.93;;;;;;;4.60;100.00;102376.44;6214949;23;20040;-75
2023/10/16 02:21:01;;;;;;;15.68;10.60;;;;;;;4.58;100.00;102363.69;6187402;23;20016;-75
2023/10/16 02:23:30;;;;;;;15.55;10.30;;;;;;;4.65;100.00;102369.56;6214863;23;20017;-78
2023/10/16 02:25:56;;;;;;;13.50;10.48;;;;;;;4.58;100.00;102350.03;6215075;23;20035;-81
2023/10/16 02:28:21;;;;;;;13.68;10.73;;;;;;;4.78;100.00;102371.06;6215078;23;20005;-77
2023/10/16 02:30:49;;;;;;;15.23;10.60;;;;;;;4.80;100.00;102371.91;6214589;23;20047;-75
2023/10/16 02:33:26;;;;;;;13.88;10.65;;;;;;;4.87;100.00;102370.94;6214898;23;20004;-75
2023/10/16 02:35:53;;;;;;;19.63;10.73;;;;;;;4.92;100.00;102360.66;6215011;23;20002;-74
2023/10/16 02:38:29;;;;;;;14.00;11.38;;;;;;;4.96;100.00;102364.84;6214853;23;20020;-74
2023/10/16 02:41:02;;;;;;;16.67;11.18;;;;;;;4.98;100.00;102357.13;6214854;23;19996;-81
2023/10/16 02:43:29;;;;;;;14.90;10.95;;;;;;;5.00;100.00;102357.97;6214794;23;20005;-78
2023/10/16 02:45:55;;;;;;;13.88;10.77;;;;;;;4.95;100.00;102346.97;6215009;23;20060;-82
2023/10/16 02:48:21;;;;;;;14.68;10.70;;;;;;;5.08;100.00;102359.53;6215204;23;20391;-75
2023/10/16 02:50:54;;;;;;;15.23;10.65;;;;;;;4.95;100.00;102347.81;6215133;23;20326;-74
2023/10/16 02:53:25;;;;;;;14.95;10.52;;;;;;;4.89;100.00;102346.16;6214805;23;20040;-75
2023/10/16 02:56:04;;;;;;;12.13;9.20;;;;;;;4.95;100.00;102355.47;6214852;23;20001;-81
2023/10/16 02:58:30;;;;;;;13.43;10.30;;;;;;;4.98;100.00;102354.59;6214915;23;20005;-82
2023/10/16 03:00:56;;;;;;;15.18;9.95;;;;;;;5.03;100.00;102363.91;6213306;23;20036;-80
2023/10/16 03:03:26;;;;;;;16.55;9.68;;;;;;;4.98;100.00;102369.94;6214828;23;20012;-80
2023/10/16 03:05:56;;;;;;;14.98;9.98;;;;;;;4.87;100.00;102352.19;6215005;23;20374;-80
2023/10/16 03:08:29;;;;;;;12.80;9.15;;;;;;;4.82;100.00;102354.81;6214815;23;20418;-75
2023/10/16 03:10:58;;;;;;;13.13;10.00;;;;;;;4.85;100.00;102362.44;6214783;23;20001;-79
2023/10/16 03:13:24;;;;;;;13.13;9.43;;;;;;;4.79;100.00;102365.09;6215094;23;20007;-76
2023/10/16 03:15:58;;;;;;;12.63;9.38;;;;;;;4.56;100.00;102331.31;6214813;23;20005;-81
2023/10/16 03:18:23;;;;;;;14.93;9.45;;;;;;;4.67;100.00;102366.97;6214559;23;20331;-80
2023/10/16 03:21:09;;;;;;;12.82;9.48;;;;;;;4.52;100.00;102352.66;6214430;23;20001;-80
2023/10/16 03:23:35;;;;;;;13.57;9.65;;;;;;;4.35;100.00;102335.00;6214702;23;20335;-82
2023/10/16 03:26:00;;;;;;;13.32;10.13;;;;;;;4.51;100.00;102367.16;6214798;23;20005;-76
2023/10/16 03:28:26;;;;;;;13.60;9.50;;;;;;;4.48;100.00;102362.09;6211941;23;20032;-81
2023/10/16 03:30:52;;;;;;;12.13;9.60;;;;;;;4.26;100.00;102343.63;6214531;23;20075;-77
2023/10/16 03:33:18;;;;;;;16.20;10.18;;;;;;;4.37;100.00;102363.13;6214736;23;20415;-80
2023/10/16 03:35:46;;;;;;;13.10;10.15;;;;;;;4.34;100.00;102358.06;6214804;23;20035;-75
2023/10/16 03:38:20;;;;;;;12.65;10.20;;;;;;;4.31;100.00;102351.25;6214922;23;20362;-75
2023/10/16 03:40:50;;;;;;;12.60;10.00;;;;;;;4.31;100.00;102356.34;6215016;23;20059;-77
2023/10/16 03:43:17;;;;;;;12.93;10.00;;;;;;;4.25;100.00;102352.19;6216706;23;20004;-80
2023/10/16 03:45:42;;;;;;;13.40;10.70;;;;;;;4.20;100.00;102340.31;6216677;23;20007;-80
2023/10/16 03:48:10;;;;;;;13.02;10.98;;;;;;;4.26;100.00;102353.03;6216391;23;20419;-77
2023/10/16 03:50:42;;;;;;;14.52;11.23;;;;;;;4.07;100.00;102321.72;6189749;23;20008;-75
2023/10/16 03:53:08;;;;;;;12.32;11.02;;;;;;;4.13;100.00;102336.13;6216583;23;20422;-82
2023/10/16 03:55:41;;;;;;;15.13;10.88;;;;;;;4.21;100.00;102353.06;6216907;23;20008;-75
2023/10/16 03:58:06;;;;;;;13.80;10.80;;;;;;;4.23;100.00;102356.47;6216914;23;20042;-81
2023/10/16 04:03:16;;;;;;;14.95;11.30;;;;;;;4.24;100.00;102355.59;6217559;23;20024;-75
2023/10/16 04:05:47;;;;;;;13.05;11.65;;;;;;;4.30;100.00;102357.22;6216636;23;20059;-77
2023/10/16 04:08:14;;;;;;;13.32;10.80;;;;;;;4.34;100.00;102355.50;6216567;23;19997;-75
2023/10/16 04:11:03;;;;;;;13.73;11.73;;;;;;;4.36;100.00;102346.94;6216796;23;20005;-78
2023/10/16 04:13:31;;;;;;;15.45;11.52;;;;;;;4.22;100.00;102318.09;6215651;23;20016;-81
2023/10/16 04:16:09;;;;;;;17.92;12.45;;;;;;;4.48;100.00;102351.03;6216090;23;20007;-78
2023/10/16 04:18:39;;;;;;;17.38;11.75;;;;;;;4.47;100.00;102349.34;6216232;23;20040;-75
2023/10/16 04:31:45;;;;;;;15.02;13.40;;;;;;;4.69;100.00;102330.25;6226644;23;20017;-81
2023/10/16 04:34:39;;;;;;;15.85;13.15;;;;;;;4.74;100.00;102338.72;6216330;23;20008;-78
2023/10/16 05:01:08;;;;;;;21.90;15.07;;;;;;;4.50;100.00;102316.03;6216379;23;20012;-78
2023/10/16 05:22:03;;;;;;;18.33;14.00;;;;;;;4.90;100.00;102306.91;6225888;23;20012;-74
2023/10/16 06:14:11;;;;;;;16.45;12.95;;;;;;;4.48;100.00;102313.50;6215342;23;20019;-77
2023/10/16 06:16:41;;;;;;;16.30;12.85;;;;;;;4.46;100.00;102320.38;6215219;23;20079;-79
2023/10/16 06:19:19;;;;;;;17.52;12.75;;;;;;;4.22;100.00;102274.66;6215143;23;20019;-80
2023/10/16 06:21:46;;;;;;;19.08;12.32;;;;;;;4.43;100.00;102311.91;6215472;23;20016;-80
2023/10/16 06:24:38;;;;;;;19.33;13.10;;;;;;;4.42;100.00;102318.69;6214970;23;20327;-83
2023/10/16 06:27:12;;;;;;;17.25;13.57;;;;;;;4.44;100.00;102309.31;6215419;23;20009;-77
2023/10/16 06:29:49;;;;;;;16.75;13.63;;;;;;;4.43;100.00;102312.75;6214998;23;20373;-76
2023/10/16 06:32:19;;;;;;;18.27;13.15;;;;;;;4.47;100.00;102309.25;6213636;23;20016;-77
2023/10/16 06:34:48;;;;;;;18.80;14.23;;;;;;;4.45;100.00;102316.13;6215617;23;20441;-81
2023/10/16 06:37:17;;;;;;;16.83;13.43;;;;;;;4.44;100.00;102306.75;6215031;23;20004;-80
2023/10/16 06:39:46;;;;;;;16.58;14.10;;;;;;;4.58;100.00;102325.31;6214632;23;20056;-74
2023/10/16 06:42:17;;;;;;;18.15;14.13;;;;;;;4.59;100.00;102321.03;6214533;23;20390;-77
2023/10/16 06:44:50;;;;;;;;;;;;;;;4.68;100.00;102320.91;6213828;23;20005;-75
2023/10/16 06:47:16;;;;;;;18.55;14.82;;;;;;;4.52;100.00;102291.28;6215152;23;19924;-74
2023/10/16 06:49:42;;;;;;;19.25;14.05;;;;;;;4.79;100.00;102316.47;6188567;23;20095;-79
2023/10/16 06:52:12;;;;;;;16.10;13.45;;;;;;;4.86;100.00;102323.19;6214852;23;20028;-75
2023/10/16 06:54:39;;;;;;;18.00;13.77;;;;;;;4.94;100.00;102329.91;6216478;23;20538;-82
2023/10/16 06:57:10;;;;;;;16.90;13.85;;;;;;;4.90;100.00;102303.50;6215211;23;20323;-76
2023/10/16 06:59:37;;;;;;;18.05;13.30;;;;;;;4.95;100.00;102300.88;6188659;23;20036;-79
2023/10/16 07:02:02;;;;;;;16.88;13.90;;;;;;;5.11;100.00;102320.22;6214791;23;20012;-79
2023/10/16 07:04:29;;;;;;;17.23;13.73;;;;;;;5.16;100.00;102319.28;6214592;23;20004;-77
2023/10/16 07:06:57;;;;;;;15.68;12.45;;;;;;;5.08;100.00;102294.69;6214996;23;20369;-76
2023/10/16 07:09:38;;;;;;;18.75;13.27;;;;;;;5.30;100.00;102324.16;6212940;23;20001;-82
2023/10/16 07:12:03;;;;;;;16.35;12.52;;;;;;;5.41;100.00;102324.00;6215077;23;20054;-81
2023/10/16 07:14:30;;;;;;;15.27;12.10;;;;;;;5.49;100.00;102319.56;6214661;23;20029;-77
2023/10/16 07:16:56;;;;;;;16.85;12.02;;;;;;;5.57;100.00;102317.72;6216085;23;20013;-82
2023/10/16 07:19:21;;;;;;;17.98;12.38;;;;;;;5.70;100.00;102316.63;6216472;23;20419;-79
2023/10/16 07:21:48;;;;;;;16.38;12.38;;;;;;;5.72;100.00;102303.78;6217192;23;20005;-79
2023/10/16 07:24:15;;;;;;;15.70;11.77;;;;;;;5.92;100.00;102319.66;6216838;23;20323;-76
2023/10/16 07:26:42;;;;;;;16.60;11.95;;;;;;;5.76;100.00;102280.63;6216880;23;20005;-81
2023/10/16 07:29:07;;;;;;;13.63;11.68;;;;;;;6.09;100.00;102326.16;6216491;23;20060;-82
2023/10/16 07:31:33;;;;;;;16.33;12.30;;;;;;;6.18;100.00;102331.09;6216648;23;20005;-81
2023/10/16 07:34:04;;;;;;;15.63;12.18;;;;;;;6.27;100.00;102329.19;6216402;23;20012;-81
2023/10/16 07:36:30;;;;;;;13.20;11.40;;;;;;;6.34;100.00;102337.59;6190159;23;20435;-83
2023/10/16 07:38:56;;;;;;;14.70;10.73;;;;;;;6.24;100.00;102305.31;6216620;23;20008;-80
2023/10/16 07:41:23;;;;;;;14.13;11.25;;;;;;;5.72;100.00;102219.22;6216473;23;20644;-81
2023/10/16 07:43:49;;;;;;;14.27;10.95;;;;;;;6.45;100.00;102333.09;6216908;23;20318;-82
2023/10/16 07:46:30;;;;;;;13.25;10.85;;;;;;;6.48;100.00;102330.44;6216667;23;20009;-81
2023/10/16 07:49:01;;;;;;;14.65;10.80;;;;;;;6.43;100.00;102318.59;6216448;23;20001;-80
2023/10/16 07:51:27;;;;;;;13.63;9.70;;;;;;;6.32;100.00;102288.91;6216511;23;20080;-83
2023/10/16 07:53:54;;;;;;;12.50;10.15;;;;;;;6.54;100.00;102314.91;6216810;23;20032;-82
2023/10/16 07:59:12;;;;;;;16.58;10.98;;;;;;;6.66;100.00;102325.78;6226902;23;20087;-81
2023/10/16 08:01:59;;;;;;;14.20;10.25;;;;;;;6.64;100.00;102312.16;6216456;23;20435;-81
2023/10/16 08:07:17;;;;;;;12.98;9.85;;;;;;;6.86;100.00;102331.31;6226919;23;20009;-78
2023/10/16 08:12:20;;;;;;;13.07;9.02;;;;;;;7.05;100.00;102326.56;6226482;23;20394;-80
2023/10/16 08:14:54;;;;;;;12.70;8.75;;;;;;;7.21;100.00;102322.75;6216064;23;20039;-78
2023/10/16 08:17:23;;;;;;;12.52;9.18;;;;;;;7.25;100.00;102315.81;6215615;23;20016;-76
2023/10/16 08:19:50;;;;;;;12.23;8.70;;;;;;;7.40;100.00;102325.72;6216406;23;20005;-80
2023/10/16 08:22:15;;;;;;;11.57;8.80;;;;;;;7.48;100.00;102323.78;6216381;23;20007;-77
2023/10/16 08:25:20;;;;;;;12.20;8.32;;;;;;;7.46;100.00;102316.09;6216093;23;20001;-84
2023/10/16 08:33:06;;;;;;;10.90;7.40;;;;;;;7.73;100.00;102326.53;6216250;23;20090;-79
2023/10/16 08:35:38;;;;;;;11.20;7.07;;;;;;;7.76;100.00;102318.72;6216116;23;20011;-74
2023/10/16 08:38:10;;;;;;;10.65;6.80;;;;;;;7.73;100.00;102295.69;6216155;23;20004;-77
2023/10/16 08:40:39;;;;;;;9.82;7.10;;;;;;;7.98;100.00;102327.56;6213078;23;20335;-79
2023/10/16 08:43:07;;;;;;;10.52;7.30;;;;;;;8.10;100.00;102328.09;6216127;23;20067;-79
2023/10/16 08:45:33;;;;;;;9.27;7.13;;;;;;;8.14;100.00;102317.66;6216445;23;20058;-74
2023/10/16 08:48:01;;;;;;;12.05;6.95;;;;;;;8.24;100.00;102311.34;6216034;23;20419;-76
2023/10/16 08:50:42;;;;;;;12.18;7.65;;;;;;;8.34;100.00;102317.06;6215943;23;20072;-76
2023/10/16 08:53:30;;;;;;;10.00;6.93;;;;;;;8.45;100.00;102324.50;6213184;23;20012;-78
2023/10/16 08:56:17;;;;;;;12.90;6.30;;;;;;;8.44;100.00;102307.38;6216076;23;20084;-75
2023/10/16 08:58:46;;;;;;;10.40;6.13;;;;;;;8.55;100.00;102318.19;6215603;23;20070;-72
2023/10/16 09:01:14;;;;;;;9.50;6.35;;;;;;;8.55;100.00;102318.19;6215996;23;20000;-77
2023/10/16 09:04:05;;;;;;;9.43;6.40;;;;;;;8.70;100.00;102322.88;6214216;23;20009;-77
2023/10/16 09:06:34;;;;;;;10.63;6.57;;;;;;;8.78;100.00;102323.47;6215887;23;20001;-76
2023/10/16 09:09:00;;;;;;;10.38;6.90;;;;;;;8.78;100.00;102297.72;6214180;23;20374;-77
2023/10/16 09:11:27;;;;;;;9.18;6.78;;;;;;;9.05;100.00;102328.66;6212771;23;20407;-77
2023/10/16 09:13:52;;;;;;;9.00;5.47;;;;;;;9.17;100.00;102323.94;6215781;23;20066;-77
2023/10/16 09:16:30;;;;;;;8.85;4.95;;;;;;;9.19;100.00;102318.72;6213306;23;20013;-81
2023/10/16 09:18:58;;;;;;;10.98;5.90;;;;;;;9.26;100.00;102316.78;6215540;23;20013;-78
2023/10/16 09:21:28;;;;;;;8.05;5.18;;;;;;;9.36;100.00;102316.41;6213445;23;20011;-79
2023/10/16 09:23:58;;;;;;;9.85;5.47;;;;;;;9.42;100.00;102325.66;6215550;23;20449;-82
2023/10/16 09:26:25;;;;;;;9.40;4.85;;;;;;;9.54;100.00;102319.25;6215300;23;20066;-78
2023/10/16 09:29:15;;;;;;;10.82;5.45;;;;;;;9.73;100.00;102328.88;6214004;23;20023;-79
2023/10/16 09:31:47;;;;;;;6.60;4.80;;;;;;;9.76;100.00;102330.50;6192993;23;20008;-78
2023/10/16 09:34:17;;;;;;;8.63;5.05;;;;;;;9.89;100.00;102331.75;6215813;23;20000;-74
2023/10/16 09:36:46;;;;;;;9.23;4.40;;;;;;;9.65;100.00;102283.63;6215536;23;20004;-84
2023/10/16 09:39:18;;;;;;;8.88;4.68;;;;;;;9.91;100.00;102327.34;6215139;23;20008;-82
2023/10/16 09:41:48;;;;;;;7.55;4.63;;;;;;;9.97;100.00;102329.72;6215534;23;20380;-78
2023/10/16 09:44:24;;;;;;;6.80;4.15;;;;;;;10.03;100.00;102328.69;6215422;23;20011;-79
2023/10/16 09:46:53;;;;;;;6.85;4.07;;;;;;;10.11;100.00;102328.38;6215851;23;20001;-78
2023/10/16 09:49:21;;;;;;;7.30;3.75;;;;;;;10.07;100.00;102317.34;6215636;23;20079;-77
2023/10/16 09:51:50;;;;;;;7.13;3.20;;;;;;;10.07;100.00;102307.84;6216148;23;20008;-77
2023/10/16 09:54:16;;;;;;;7.40;3.20;;;;;;;10.08;100.00;102306.09;6216247;23;20012;-80
2023/10/16 09:56:48;;;;;;;5.63;2.90;;;;;;;10.31;100.00;102324.16;6215518;23;20012;-82
2023/10/16 09:59:31;;;;;;;3.90;2.08;;;;;;;10.36;100.00;102324.00;6215830;23;20004;-81
2023/10/16 10:02:05;;;;;;;4.18;1.88;;;;;;;10.41;100.00;102316.06;6215221;23;20009;-77
2023/10/16 10:04:32;;;;;;;5.40;2.38;;;;;;;10.48;100.00;102323.53;6215249;23;20007;-78
2023/10/16 10:07:00;;;;;;;4.47;2.50;;;;;;;10.49;100.00;102324.38;6215140;23;20063;-78
2023/10/16 10:09:41;;;;;;;8.35;2.47;;;;;;;10.44;100.00;102305.66;6214057;23;20031;-77
2023/10/16 10:12:28;;;;;;;3.67;2.05;;;;;;;10.57;100.00;102317.19;6215903;23;20062;-77
2023/10/16 10:15:14;;;;;;;5.30;1.60;;;;;;;10.53;100.00;102298.38;6215209;23;20062;-79
2023/10/16 10:17:42;;;;;;;4.05;1.50;;;;;;;10.67;99.06;102317.66;6215106;23;20485;-79
2023/10/16 10:20:09;;;;;;;3.40;1.17;;;;;;;10.73;100.00;102320.00;6215077;23;20000;-80
2023/10/16 10:22:36;;;;;;;3.92;1.77;;;;;;;10.75;100.00;102307.88;6214906;23;20079;-80
2023/10/16 10:25:09;;;;;;;4.35;1.80;;;;;;;10.80;100.00;102311.09;6215216;23;20071;-80
2023/10/16 10:27:41;;;;;;;4.82;1.20;;;;;;;10.76;96.61;102306.97;6215045;23;20075;-77
2023/10/16 10:30:33;;;;;;;4.28;1.10;;;;;;;10.80;95.18;102313.66;6215087;23;20419;-79
2023/10/16 10:32:59;;;;;;;;;;;;;;;10.86;100.00;102316.03;6215388;23;20083;-81
2023/10/16 10:35:28;;;;;;;4.90;1.67;;;;;;;10.83;97.90;102308.41;6214999;23;19918;-79
2023/10/16 10:38:20;;;;;;;3.13;1.67;;;;;;;10.86;100.00;102303.94;6215258;23;20020;-78
2023/10/16 10:41:03;;;;;;;3.83;2.20;;;;;;;10.86;100.00;102309.09;6215014;23;20007;-84
2023/10/16 10:43:49;;;;;;;4.28;2.05;;;;;;;10.84;99.58;102297.16;6214553;23;20150;-83
2023/10/16 10:46:26;;;;;;;3.17;1.70;;;;;;;10.73;100.00;102269.19;6215381;23;20001;-80
2023/10/16 10:48:54;;;;;;;3.85;1.55;;;;;;;10.79;100.00;102268.06;6188489;23;20007;-77
2023/10/16 10:51:21;;;;;;;5.28;1.52;;;;;;;10.95;100.00;102282.06;6215072;23;20007;-81
2023/10/16 10:53:57;;;;;;;2.72;1.65;;;;;;;11.12;100.00;102296.88;6215007;23;20050;-81
2023/10/16 10:56:38;;;;;;;4.22;1.30;;;;;;;11.11;98.38;102303.78;6215193;23;20083;-81
2023/10/16 10:59:08;;;;;;;5.57;1.48;;;;;;;11.07;98.95;102301.38;6214699;23;20052;-80
2023/10/16 11:01:37;;;;;;;3.25;1.10;;;;;;;11.00;95.52;102295.59;6215144;23;20081;-79
2023/10/16 11:04:15;;;;;;;3.05;1.27;;;;;;;10.95;94.35;102294.13;6214488;23;20092;-75
2023/10/16 11:06:54;;;;;;;3.85;1.25;;;;;;;10.84;96.31;102287.66;6215103;23;20004;-83
2023/10/16 11:09:26;;;;;;;4.53;1.67;;;;;;;10.78;98.66;102268.97;6213719;23;20004;-83
2023/10/16 11:11:52;;;;;;;3.83;1.75;;;;;;;10.95;95.05;102287.22;6215013;23;20386;-82
2023/10/16 11:14:32;;;;;;;4.82;1.50;;;;;;;11.04;95.85;102286.84;6214913;23;20079;-79
2023/10/16 11:16:58;;;;;;;3.78;1.65;;;;;;;11.13;95.63;102285.63;6215008;23;20331;-78
2023/10/16 11:19:29;;;;;;;3.33;1.35;;;;;;;11.24;95.66;102277.41;6214962;23;20100;-78
2023/10/16 11:22:00;;;;;;;4.18;1.90;;;;;;;11.41;96.90;102278.38;6215123;23;20011;-80
2023/10/16 11:24:25;;;;;;;4.80;1.60;;;;;;;11.46;97.90;102252.28;6213283;23;20387;-78
2023/10/16 11:26:54;;;;;;;5.05;1.90;;;;;;;11.69;94.35;102267.63;6214736;23;20032;-76
2023/10/16 11:29:20;;;;;;;4.25;1.50;;;;;;;11.89;95.80;102265.91;6212104;23;20335;-82
2023/10/16 11:31:46;;;;;;;4.78;1.70;;;;;;;12.05;93.37;102267.75;6214737;23;20001;-79
2023/10/16 11:34:21;;;;;;;5.15;1.70;;;;;;;12.10;89.42;102257.19;6215228;23;20012;-83
2023/10/16 11:36:50;;;;;;;3.33;1.63;;;;;;;12.29;89.26;102270.97;6215005;23;20072;-80
2023/10/16 11:39:19;;;;;;;4.53;1.38;;;;;;;11.98;87.55;102214.56;6214846;23;20008;-82
2023/10/16 11:41:46;;;;;;;4.75;1.58;;;;;;;12.07;84.66;102234.00;6213269;23;20423;-79
2023/10/16 11:44:16;;;;;;;3.85;1.33;;;;;;;12.13;83.83;102259.63;6214553;23;20095;-83
2023/10/16 11:46:46;;;;;;;5.05;1.52;;;;;;;12.04;85.76;102254.88;6214680;23;20005;-82
2023/10/16 11:52:22;;;;;;;2.75;1.73;;;;;;;12.06;90.83;102253.03;6225260;23;20020;-82
2023/10/16 11:54:53;;;;;;;2.63;1.40;;;;;;;12.05;89.80;102247.03;6093736;23;20054;-79
2023/10/16 11:57:18;;;;;;;5.63;2.13;;;;;;;12.14;91.24;102234.56;6093831;23;20468;-82
2023/10/16 11:59:44;;;;;;;5.75;1.55;;;;;;;12.13;89.02;102222.53;6093565;23;20021;-81
2023/10/16 12:02:13;;;;;;;6.10;1.70;;;;;;;12.33;89.43;102237.97;6094426;23;20014;-82
2023/10/16 12:04:42;;;;;;;3.92;1.90;;;;;;;12.43;87.57;102235.78;6095580;23;20006;-82
2023/10/16 12:07:08;;;;;;;5.38;1.65;;;;;;;12.16;88.66;102180.94;6095468;23;20010;-82
2023/10/16 12:09:38;;;;;;;3.80;1.38;;;;;;;12.56;87.53;102226.47;6095364;23;20037;-82
2023/10/16 12:12:06;;;;;;;5.15;1.50;;;;;;;12.54;86.19;102202.41;6095409;23;20006;-80
2023/10/16 12:14:38;;;;;;;5.60;2.10;;;;;;;12.75;85.57;102213.47;6094918;23;20014;-81
2023/10/16 12:17:11;;;;;;;4.93;1.90;;;;;;;12.88;84.53;102227.47;6095070;23;20090;-82
2023/10/16 12:19:37;;;;;;;2.53;1.70;;;;;;;12.98;82.45;102222.66;6095399;23;20006;-82
2023/10/16 12:22:03;;;;;;;4.82;1.52;;;;;;;13.13;84.26;102224.47;6095192;23;20013;-77
2023/10/16 12:24:28;;;;;;;4.53;1.60;;;;;;;13.04;81.75;102192.06;6095171;23;20421;-84
2023/10/16 12:26:54;;;;;;;3.80;1.38;;;;;;;13.23;82.13;102202.38;6095150;23;20094;-80
2023/10/16 12:29:19;;;;;;;4.65;1.95;;;;;;;13.40;82.04;102215.31;6110199;23;20149;-83
2023/10/16 12:31:44;;;;;;;6.97;2.33;;;;;;;13.43;79.31;102215.13;6216492;23;20004;-82
2023/10/16 12:34:11;;;;;;;3.80;1.90;;;;;;;13.46;79.01;102209.78;6216272;23;20012;-80
2023/10/16 12:36:40;;;;;;;2.85;1.45;;;;;;;13.52;79.86;102207.78;6216176;23;20004;-79
2023/10/16 12:39:24;;;;;;;4.72;1.60;;;;;;;13.45;76.37;102191.69;6216141;23;20008;-80
2023/10/16 12:41:53;;;;;;;3.17;1.88;;;;;;;13.50;78.94;102194.91;6213202;23;20009;-81
2023/10/16 12:44:18;;;;;;;5.72;1.45;;;;;;;13.54;76.87;102211.13;6215898;23;20055;-79
2023/10/16 12:46:44;;;;;;;3.53;1.25;;;;;;;13.48;75.21;102199.34;6215842;23;20004;-80
2023/10/16 12:49:09;;;;;;;3.33;1.65;;;;;;;13.38;77.18;102186.00;6216201;23;20004;-79
2023/10/16 12:51:34;;;;;;;2.47;1.48;;;;;;;13.34;78.57;102188.84;6215923;23;20516;-77
2023/10/16 12:54:03;;;;;;;7.15;2.35;;;;;;;13.10;79.55;102145.09;6215886;23;20008;-81
2023/10/16 12:56:41;;;;;;;3.35;2.10;;;;;;;13.33;80.88;102181.97;6215670;23;20005;-80
2023/10/16 12:59:08;;;;;;;5.20;1.98;;;;;;;13.27;77.25;102179.69;6215674;23;20001;-79
2023/10/16 13:01:36;;;;;;;4.70;1.40;;;;;;;13.26;77.57;102193.59;6215824;23;20449;-78
2023/10/16 13:04:03;;;;;;;2.60;0.90;;;;;;;13.12;75.96;102202.06;6215784;23;20458;-76
2023/10/16 13:06:30;;;;;;;3.38;1.27;;;;;;;13.08;77.80;102195.38;6213528;23;20004;-78
2023/10/16 13:08:56;;;;;;;2.35;0.88;;;;;;;13.09;77.02;102195.28;6190103;23;20001;-76
2023/10/16 13:11:22;;;;;;;2.67;1.00;;;;;;;13.08;76.30;102188.44;6222261;23;20060;-76
2023/10/16 13:13:47;;;;;;;2.25;1.25;;;;;;;13.10;77.28;102189.19;6224767;23;20005;-78
2023/10/16 13:16:12;;;;;;;3.95;0.90;;;;;;;13.15;79.32;102194.94;6217108;23;20012;-78
2023/10/16 13:18:38;;;;;;;2.97;1.08;;;;;;;13.16;79.99;102193.19;6215883;23;20380;-81
2023/10/16 13:21:07;;;;;;;4.32;1.27;;;;;;;13.19;79.91;102180.13;6215931;23;20005;-80
2023/10/16 13:23:35;;;;;;;3.50;1.30;;;;;;;13.19;77.41;102193.09;6215622;23;20015;-80
2023/10/16 13:26:01;;;;;;;3.20;1.13;;;;;;;13.04;75.41;102180.88;6215818;23;20005;-80
2023/10/16 13:28:26;;;;;;;3.60;1.17;;;;;;;12.98;77.76;102173.38;6215907;23;20039;-79
2023/10/16 13:30:52;;;;;;;4.15;1.08;;;;;;;12.98;78.14;102178.56;6215562;23;20004;-81
2023/10/16 13:33:20;;;;;;;3.20;1.23;;;;;;;13.01;78.20;102179.28;6215736;23;20051;-81